.
WxDataArchive / Data Records for 2005-12-08
2005-12-07 December 2005 2005-12-09

Data Records for Thursday, 08 December 2005

Time	Temp	Chill	HIndex	Humid	Dewpt	 Wind 	HiWind	WindDir	Rain 	Barom 
-----	----	-----	------	-----	-----	------	------	-------	-----	----- 
00:00	3.2	3.2	3.2	81	-1.3	0	0	---	0.00	30.704 
00:05	3.2	3.2	3.2	82	-1.0	0	0	---	0.00	30.704 
00:10	3.2	3.2	3.2	82	-1.0	0	0	---	0.00	30.704 
00:15	3.0	3.0	3.0	81	-1.5	0	0	---	0.00	30.698 
00:20	2.8	2.8	2.8	81	-1.7	0	0	---	0.00	30.698 
00:25	2.6	2.6	2.6	81	-1.9	0	0	---	0.00	30.698 
00:30	2.6	2.6	2.6	82	-1.6	0	0	---	0.00	30.693 
00:35	2.6	2.6	2.6	82	-1.6	0	0	---	0.00	30.693 
00:40	2.4	2.4	2.4	82	-1.8	0	0	---	0.00	30.693 
00:45	2.6	2.6	2.6	82	-1.6	0	0	---	0.00	30.692 
00:50	2.6	2.6	2.6	82	-1.6	0	0	---	0.00	30.692 
00:55	2.4	2.4	2.4	82	-1.8	0	0	---	0.00	30.692 
01:00	2.2	2.2	2.2	81	-2.3	0	0	---	0.00	30.693 
01:05	2.0	2.0	2.0	81	-2.5	0	0	---	0.00	30.693 
01:10	1.8	1.8	1.8	80	-2.9	0	0	---	0.00	30.693 
01:15	1.7	1.7	1.7	81	-2.8	0	0	---	0.00	30.693 
01:20	1.7	1.7	1.7	81	-2.8	0	0	---	0.00	30.693 
01:25	1.7	1.7	1.7	81	-2.8	0	0	---	0.00	30.693 
01:30	1.7	1.7	1.7	82	-2.5	0	0	---	0.00	30.689 
01:35	1.7	1.7	1.7	82	-2.5	0	0	---	0.00	30.689 
01:40	1.7	1.7	1.7	81	-2.8	0	0	---	0.00	30.689 
01:45	1.5	1.5	1.5	81	-3.0	0	0	---	0.00	30.687 
01:50	1.5	1.5	1.5	81	-3.0	0	0	---	0.00	30.687 
01:55	1.5	1.5	1.5	81	-3.0	0	0	---	0.00	30.687 
02:00	1.5	1.5	1.5	82	-2.7	0	0	---	0.00	30.686 
02:05	1.3	1.3	1.3	82	-2.9	0	0	---	0.00	30.686 
02:10	1.3	1.3	1.3	82	-2.9	0	0	---	0.00	30.686 
02:15	1.5	1.5	1.5	82	-2.7	0	0	---	0.00	30.673 
02:20	1.5	1.5	1.5	82	-2.7	0	0	---	0.00	30.673 
02:25	1.5	1.5	1.5	82	-2.7	0	0	---	0.00	30.673 
02:30	1.7	1.7	1.7	82	-2.5	0	0	---	0.00	30.674 
02:35	1.8	1.8	1.8	82	-2.4	0	0	---	0.00	30.674 
02:40	1.8	1.8	1.8	82	-2.4	0	0	---	0.00	30.674 
02:45	1.8	1.8	1.8	82	-2.4	0	0	---	0.00	30.676 
02:50	1.8	1.8	1.8	82	-2.4	0	0	---	0.00	30.676 
02:55	1.8	1.8	1.8	82	-2.4	0	1	248	0.00	30.676 
03:00	2.0	2.0	2.0	82	-2.2	0	0	---	0.00	30.680 
03:05	2.0	2.0	2.0	82	-2.2	0	0	---	0.00	30.680 
03:10	1.8	1.8	1.8	82	-2.4	0	0	---	0.00	30.680 
03:15	1.8	1.8	1.8	82	-2.4	0	0	---	0.00	30.685 
03:20	1.7	1.7	1.7	82	-2.5	0	0	---	0.00	30.685 
03:25	1.7	1.7	1.7	82	-2.5	0	0	---	0.00	30.685 
03:30	1.7	1.7	1.7	82	-2.5	0	0	---	0.00	30.689 
03:35	1.5	1.5	1.5	81	-3.0	0	0	---	0.00	30.689 
03:40	1.5	1.5	1.5	81	-3.0	0	0	---	0.00	30.689 
03:45	1.5	1.5	1.5	81	-3.0	0	0	---	0.00	30.690 
03:50	1.3	1.3	1.3	81	-3.1	0	0	---	0.00	30.690 
03:55	1.3	1.3	1.3	81	-3.1	0	0	---	0.00	30.690 
04:00	1.3	1.3	1.3	81	-3.1	0	0	---	0.00	30.687 
04:05	1.3	1.3	1.3	81	-3.1	0	0	---	0.00	30.687 
04:10	1.3	1.3	1.3	81	-3.1	0	0	---	0.00	30.687 
04:15	1.3	1.3	1.3	81	-3.1	0	0	---	0.00	30.682 
04:20	1.5	1.5	1.5	82	-2.7	0	0	---	0.00	30.682 
04:25	1.5	1.5	1.5	81	-3.0	0	0	---	0.00	30.682 
04:30	1.5	1.5	1.5	81	-3.0	0	0	---	0.00	30.673 
04:35	1.5	1.5	1.5	81	-3.0	0	0	---	0.00	30.673 
04:40	1.8	1.8	1.8	84	-1.9	0	1	248	0.00	30.673 
04:45	2.6	2.6	2.6	84	-1.1	0	1	248	0.00	30.668 
04:50	3.0	3.0	3.0	84	-0.7	0	1	248	0.00	30.668 
04:55	3.2	3.2	3.2	82	-1.0	0	1	248	0.00	30.668 
05:00	3.4	3.4	3.4	82	-0.8	0	1	248	0.00	30.664 
05:05	3.4	3.4	3.4	82	-0.8	0	2	135	0.00	30.664 
05:10	3.5	3.5	3.5	82	-0.7	1	3	135	0.00	30.664 
05:15	3.5	3.5	3.5	81	-1.0	0	1	112	0.00	30.669 
05:20	3.5	3.5	3.5	81	-1.0	0	1	112	0.00	30.669 
05:25	3.5	3.5	3.5	81	-1.0	0	0	---	0.00	30.669 
05:30	3.5	3.5	3.5	81	-1.0	0	0	---	0.00	30.664 
05:35	3.4	3.4	3.4	80	-1.4	0	0	---	0.00	30.664 
05:40	3.2	3.2	3.2	79	-1.8	0	0	---	0.00	30.664 
05:45	3.0	3.0	3.0	80	-1.7	0	0	---	0.00	30.675 
05:50	3.0	3.0	3.0	81	-1.5	0	1	112	0.00	30.675 
05:55	3.0	3.0	3.0	80	-1.7	0	0	---	0.00	30.675 
06:00	2.8	2.8	2.8	80	-1.9	0	0	---	0.00	30.676 
06:05	2.6	2.6	2.6	79	-2.4	0	0	---	0.00	30.676 
06:10	2.6	2.6	2.6	80	-2.1	0	0	---	0.00	30.676 
06:15	2.6	2.6	2.6	81	-1.9	0	1	112	0.00	30.677 
06:20	2.6	2.6	2.6	80	-2.1	0	0	---	0.00	30.677 
06:25	2.8	2.8	2.8	80	-1.9	0	0	---	0.00	30.677 
06:30	2.8	2.8	2.8	81	-1.7	0	1	112	0.00	30.673 
06:35	3.2	3.2	3.2	81	-1.3	0	2	112	0.00	30.673 
06:40	3.4	3.4	3.4	81	-1.1	0	1	112	0.00	30.673 
06:45	3.7	3.7	3.7	81	-0.8	0	2	112	0.00	30.658 
06:50	3.9	3.9	3.9	81	-0.6	0	1	90	0.00	30.658 
06:55	4.3	4.3	4.3	81	-0.2	1	3	90	0.00	30.658 
07:00	4.3	4.3	4.3	81	-0.2	1	3	112	0.00	30.647 
07:05	4.3	4.3	4.3	80	-0.5	1	2	90	0.00	30.647 
07:10	4.3	4.3	4.3	80	-0.5	1	3	90	0.00	30.647 
07:15	4.3	4.3	4.3	80	-0.5	1	2	90	0.00	30.644 
07:20	4.5	4.5	4.5	81	-0.0	1	2	90	0.00	30.644 
07:25	4.5	4.5	4.5	81	-0.0	1	2	90	0.00	30.644 
07:30	4.7	4.7	4.7	81	0.2	1	2	112	0.00	30.634 
07:35	4.8	4.8	4.8	81	0.3	1	3	112	0.00	30.634 
07:40	5.0	5.0	5.0	81	0.5	1	4	112	0.00	30.634 
07:45	5.4	5.4	5.4	81	0.9	1	3	90	0.00	30.626 
07:50	5.6	5.6	5.6	81	1.1	1	3	90	0.00	30.626 
07:55	5.8	5.8	5.8	81	1.3	1	3	112	0.00	30.626 
08:00	6.0	6.0	6.0	81	1.4	1	4	112	0.00	30.624 
08:05	6.0	6.0	6.0	80	1.2	1	3	90	0.00	30.624 
08:10	6.1	6.1	6.1	80	1.3	1	3	90	0.00	30.624 
08:15	6.1	6.1	6.1	80	1.3	1	4	90	0.00	30.617 
08:20	6.3	6.3	6.3	81	1.7	1	4	90	0.00	30.617 
08:25	6.3	6.3	6.3	81	1.7	2	4	90	0.00	30.617 
08:30	6.5	6.5	6.5	81	1.9	2	5	90	0.00	30.603 
08:35	6.9	6.9	6.9	81	2.3	2	4	90	0.00	30.603 
08:40	7.0	7.0	7.0	80	2.2	2	6	90	0.00	30.603 
08:45	7.2	7.2	7.2	80	2.4	2	6	90	0.00	30.601 
08:50	7.4	7.4	7.4	80	2.5	2	5	90	0.00	30.601 
08:55	7.7	7.7	7.7	80	2.8	1	4	90	0.00	30.601 
09:00	7.9	7.9	7.9	80	3.0	1	4	90	0.00	30.602 
09:05	8.1	8.1	8.1	79	3.0	2	4	90	0.00	30.602 
09:10	8.3	8.3	8.3	80	3.4	1	2	112	0.00	30.602 
09:15	8.4	8.4	8.4	79	3.3	2	3	90	0.00	30.616 
09:20	8.4	8.4	8.4	79	3.3	1	3	90	0.00	30.616 
09:25	8.6	8.6	8.6	80	3.7	1	3	90	0.00	30.616 
09:30	8.8	8.8	8.8	80	3.9	1	3	90	0.00	30.614 
09:35	9.2	9.2	9.2	80	4.3	1	2	90	0.00	30.614 
09:40	9.5	9.5	9.5	79	4.3	2	4	90	0.00	30.614 
09:45	9.9	9.9	9.9	79	4.7	1	3	90	0.00	30.605 
09:50	10.0	10.0	10.0	79	4.8	2	4	90	0.00	30.605 
09:55	10.4	10.4	10.4	79	5.2	2	4	90	0.00	30.605 
10:00	10.7	10.7	10.7	78	5.2	2	6	90	0.00	30.586 
10:05	10.9	10.9	10.9	77	5.1	3	9	112	0.00	30.586 
10:10	11.1	11.1	11.1	79	5.9	3	9	90	0.00	30.586 
10:15	11.1	11.1	11.1	78	5.6	2	5	90	0.00	30.596 
10:20	11.4	11.4	11.4	79	6.2	1	3	112	0.00	30.596 
10:25	11.9	11.9	11.9	78	6.4	1	3	90	0.00	30.596 
10:30	12.3	12.3	12.3	76	6.2	3	7	90	0.00	30.582 
10:35	12.6	12.6	12.6	75	6.2	3	7	90	0.00	30.582 
10:40	12.8	12.8	12.8	76	6.7	2	5	90	0.00	30.582 
10:45	13.1	13.1	13.1	75	6.7	3	7	90	0.00	30.561 
10:50	13.1	13.1	13.1	75	6.7	3	6	112	0.00	30.561 
10:55	13.5	6.7	13.5	74	6.8	4	7	90	0.00	30.561 
11:00	13.6	6.8	13.6	74	6.9	4	10	90	0.00	30.548 
11:05	14.1	14.1	14.1	74	7.4	3	6	112	0.00	30.548 
11:10	14.4	14.4	14.4	73	7.4	3	7	112	0.00	30.548 
11:15	14.9	14.9	14.9	73	7.8	3	6	112	0.00	30.548 
11:20	15.6	15.6	15.6	73	8.5	3	6	112	0.00	30.548 
11:25	15.7	15.7	15.7	72	8.3	3	6	112	0.00	30.548 
11:30	15.9	15.9	15.9	73	8.8	3	7	90	0.00	30.529 
11:35	16.1	16.1	16.1	73	9.0	3	10	112	0.00	30.529 
11:40	16.2	16.2	16.2	73	9.1	3	12	90	0.00	30.529 
11:45	16.2	16.2	16.2	72	8.8	3	9	112	0.00	30.506 
11:50	16.1	9.7	16.1	73	9.0	4	10	112	0.00	30.506 
11:55	16.1	9.7	16.1	73	9.0	4	11	90	0.00	30.506 
12:00	16.2	9.8	16.2	74	9.4	4	10	90	0.00	30.498 
12:05	16.5	10.2	16.5	73	9.4	4	10	112	0.00	30.498 
12:10	16.5	10.2	16.5	73	9.4	4	7	90	0.00	30.498 
12:15	17.0	17.0	17.0	74	10.2	2	5	90	0.00	30.498 
12:20	17.2	11.0	17.2	73	10.1	4	7	90	0.00	30.498 
12:25	17.2	17.2	17.2	74	10.4	3	6	112	0.00	30.498 
12:30	17.5	17.5	17.5	73	10.3	3	9	90	0.00	30.476 
12:35	17.5	11.3	17.5	73	10.3	4	9	112	0.00	30.476 
12:40	17.8	17.8	17.8	73	10.6	3	10	90	0.00	30.476 
12:45	17.8	11.7	17.8	73	10.6	4	9	90	0.00	30.458 
12:50	18.0	11.9	18.0	73	10.8	4	6	90	0.00	30.458 
12:55	18.1	18.1	18.1	73	10.9	3	7	90	0.00	30.458 
13:00	18.1	18.1	18.1	73	10.9	3	6	90	0.00	30.443 
13:05	18.0	11.9	18.0	73	10.8	4	10	90	0.00	30.443 
13:10	18.1	10.7	18.1	73	10.9	5	9	112	0.00	30.443 
13:15	18.3	12.3	18.3	73	11.1	4	10	90	0.00	30.421 
13:20	18.4	12.4	18.4	74	11.5	4	10	90	0.00	30.421 
13:25	18.6	11.3	18.6	73	11.4	5	12	112	0.00	30.421 
13:30	18.8	11.6	18.8	72	11.3	5	11	112	0.00	30.402 
13:35	18.9	11.7	18.9	72	11.4	5	11	112	0.00	30.402 
13:40	19.1	10.9	19.1	71	11.3	6	11	90	0.00	30.402 
13:45	19.2	13.3	19.2	71	11.4	4	11	90	0.00	30.384 
13:50	19.4	12.3	19.4	71	11.6	5	14	112	0.00	30.384 
13:55	19.5	12.4	19.5	72	12.0	5	10	90	0.00	30.384 
14:00	19.7	11.6	19.7	70	11.5	6	11	112	0.00	30.360 
14:05	20.0	14.2	20.0	71	12.1	4	10	90	0.00	30.360 
14:10	20.0	14.2	20.0	70	11.8	4	7	112	0.00	30.360 
14:15	20.0	13.0	20.0	69	11.5	5	10	112	0.00	30.356 
14:20	20.0	14.2	20.0	70	11.8	4	8	112	0.00	30.356 
14:25	20.0	14.2	20.0	70	11.8	4	8	112	0.00	30.356 
14:30	20.0	14.2	20.0	71	12.1	4	9	90	0.00	30.353 
14:35	20.2	20.2	20.2	72	12.6	3	7	90	0.00	30.353 
14:40	20.2	20.2	20.2	72	12.6	3	6	90	0.00	30.353 
14:45	20.3	14.6	20.3	71	12.4	4	10	112	0.00	30.340 
14:50	20.3	13.3	20.3	70	12.1	5	9	90	0.00	30.340 
14:55	20.2	13.2	20.2	70	12.0	5	12	112	0.00	30.340 
15:00	20.2	20.2	20.2	70	12.0	3	6	112	0.00	30.341 
15:05	20.0	20.0	20.0	71	12.1	3	7	112	0.00	30.341 
15:10	20.0	14.2	20.0	71	12.1	4	8	90	0.00	30.341 
15:15	19.9	14.1	19.9	71	12.0	4	9	90	0.00	30.328 
15:20	19.9	19.9	19.9	72	12.4	3	6	90	0.00	30.328 
15:25	19.9	19.9	19.9	72	12.4	3	10	90	0.00	30.328 
15:30	20.0	20.0	20.0	71	12.1	3	6	112	0.00	30.324 
15:35	19.9	14.1	19.9	73	12.7	4	9	90	0.00	30.324 
15:40	20.0	14.2	20.0	73	12.8	4	10	90	0.00	30.324 
15:45	20.0	14.2	20.0	73	12.8	4	9	90	0.00	30.301 
15:50	20.0	20.0	20.0	74	13.1	3	5	112	0.00	30.301 
15:55	19.9	19.9	19.9	78	14.2	3	10	90	0.00	30.301 
16:00	19.5	19.5	19.5	81	14.6	3	8	90	0.00	30.281 
16:05	19.2	12.0	19.2	83	14.9	5	13	90	0.00	30.281 
16:10	19.1	13.2	19.1	84	15.1	4	10	112	0.00	30.281 
16:15	19.1	19.1	19.1	84	15.1	3	10	112	0.00	30.273 
16:20	18.9	11.7	18.9	85	15.2	5	12	112	0.00	30.273 
16:25	18.9	18.9	18.9	85	15.2	2	6	112	0.00	30.273 
16:30	19.1	19.1	19.1	86	15.6	3	7	112	0.00	30.259 
16:35	19.1	19.1	19.1	86	15.6	2	5	90	0.00	30.259 
16:40	19.1	19.1	19.1	86	15.6	3	10	112	0.00	30.259 
16:45	19.1	11.9	19.1	86	15.6	5	10	112	0.00	30.262 
16:50	19.1	19.1	19.1	86	15.6	3	5	90	0.00	30.262 
16:55	19.1	19.1	19.1	87	15.9	2	6	112	0.00	30.262 
17:00	19.1	19.1	19.1	87	15.9	2	7	90	0.00	30.255 
17:05	19.1	19.1	19.1	87	15.9	2	7	112	0.00	30.255 
17:10	19.2	13.3	19.2	87	16.0	4	10	112	0.00	30.255 
17:15	19.2	19.2	19.2	87	16.0	3	7	112	0.00	30.250 
17:20	19.2	19.2	19.2	87	16.0	3	7	112	0.00	30.250 
17:25	19.2	13.3	19.2	87	16.0	4	10	112	0.00	30.250 
17:30	19.2	13.3	19.2	88	16.2	4	8	90	0.00	30.227 
17:35	19.4	19.4	19.4	88	16.4	3	7	90	0.00	30.227 
17:40	19.4	19.4	19.4	88	16.4	3	9	112	0.00	30.227 
17:45	19.4	19.4	19.4	88	16.4	3	7	112	0.00	30.226 
17:50	19.4	19.4	19.4	88	16.4	3	10	112	0.00	30.226 
17:55	19.4	13.5	19.4	88	16.4	4	9	112	0.00	30.226 
18:00	19.4	19.4	19.4	88	16.4	3	9	90	0.00	30.211 
18:05	19.4	19.4	19.4	88	16.4	3	7	90	0.00	30.211 
18:10	19.5	19.5	19.5	88	16.5	3	6	90	0.00	30.211 
18:15	19.5	13.6	19.5	88	16.5	4	9	90	0.00	30.201 
18:20	19.7	19.7	19.7	88	16.7	3	7	90	0.00	30.201 
18:25	19.7	13.9	19.7	88	16.7	4	10	112	0.00	30.201 
18:30	19.7	19.7	19.7	88	16.7	3	7	90	0.00	30.180 
18:35	19.7	19.7	19.7	88	16.7	3	6	112	0.00	30.180 
18:40	19.7	13.9	19.7	88	16.7	4	9	112	0.00	30.180 
18:45	19.7	19.7	19.7	88	16.7	3	8	112	0.00	30.170 
18:50	19.5	13.6	19.5	88	16.5	4	10	112	0.00	30.170 
18:55	19.5	13.6	19.5	88	16.5	4	11	90	0.00	30.170 
19:00	19.7	12.6	19.7	88	16.7	5	11	90	0.00	30.150 
19:05	19.7	11.6	19.7	88	16.7	6	12	112	0.00	30.150 
19:10	19.7	12.6	19.7	88	16.7	5	13	112	0.00	30.150 
19:15	19.7	13.9	19.7	88	16.7	4	12	112	0.00	30.130 
19:20	19.7	13.9	19.7	90	17.3	4	11	112	0.00	30.130 
19:25	19.7	11.6	19.7	88	16.7	6	12	112	0.00	30.130 
19:30	19.7	12.6	19.7	88	16.7	5	12	112	0.00	30.101 
19:35	19.7	12.6	19.7	88	16.7	5	9	112	0.00	30.101 
19:40	19.9	19.9	19.9	88	16.9	3	9	112	0.00	30.101 
19:45	19.9	19.9	19.9	89	17.2	3	9	90	0.00	30.098 
19:50	20.0	14.2	20.0	89	17.3	4	10	112	0.00	30.098 
19:55	20.2	14.4	20.2	89	17.5	4	7	112	0.00	30.098 
20:00	20.2	20.2	20.2	89	17.5	3	10	112	0.00	30.081 
20:05	20.2	20.2	20.2	89	17.5	3	9	90	0.00	30.081 
20:10	20.3	20.3	20.3	89	17.6	3	10	112	0.00	30.081 
20:15	20.3	14.6	20.3	89	17.6	4	10	112	0.00	30.069 
20:20	20.5	20.5	20.5	89	17.8	3	10	68	0.00	30.069 
20:25	20.5	14.8	20.5	89	17.8	4	9	112	0.00	30.069 
20:30	20.6	20.6	20.6	89	17.9	3	8	112	0.00	30.056 
20:35	20.6	20.6	20.6	89	17.9	3	11	112	0.00	30.056 
20:40	20.8	13.9	20.8	89	18.1	5	11	112	0.00	30.056 
20:45	20.8	15.1	20.8	89	18.1	4	8	112	0.00	30.037 
20:50	21.0	15.4	21.0	89	18.3	4	11	112	0.00	30.037 
20:55	21.0	15.4	21.0	89	18.3	4	9	112	0.00	30.037 
21:00	21.1	15.5	21.1	89	18.4	4	7	112	0.00	30.019 
21:05	21.1	21.1	21.1	89	18.4	3	7	90	0.00	30.019 
21:10	21.3	15.7	21.3	89	18.6	4	7	112	0.00	30.019 
21:15	21.4	15.8	21.4	90	18.9	4	8	112	0.00	29.997 
21:20	21.4	15.8	21.4	89	18.7	4	8	112	0.00	29.997 
21:25	21.4	21.4	21.4	89	18.7	3	7	90	0.00	29.997 
21:30	21.4	21.4	21.4	89	18.7	2	5	90	0.00	29.987 
21:35	21.6	16.1	21.6	90	19.1	4	10	90	0.00	29.987 
21:40	21.6	21.6	21.6	90	19.1	3	6	90	0.00	29.987 
21:45	21.8	21.8	21.8	90	19.3	3	7	90	0.00	29.982 
21:50	21.9	21.9	21.9	90	19.4	3	5	112	0.00	29.982 
21:55	21.9	21.9	21.9	90	19.4	3	6	90	0.00	29.982 
22:00	22.1	22.1	22.1	90	19.6	2	4	90	0.00	29.978 
22:05	22.2	22.2	22.2	90	19.7	2	5	90	0.00	29.978 
22:10	22.2	22.2	22.2	90	19.7	3	7	90	0.00	29.978 
22:15	22.4	22.4	22.4	90	19.9	2	5	90	0.00	29.961 
22:20	22.4	22.4	22.4	90	19.9	2	4	90	0.00	29.961 
22:25	22.5	22.5	22.5	90	20.0	2	3	90	0.00	29.961 
22:30	22.5	22.5	22.5	90	20.0	2	3	112	0.00	29.952 
22:35	22.5	22.5	22.5	90	20.0	2	4	90	0.00	29.952 
22:40	22.7	22.7	22.7	90	20.2	1	3	112	0.00	29.952 
22:45	22.7	22.7	22.7	90	20.2	1	3	112	0.00	29.946 
22:50	22.7	22.7	22.7	90	20.2	1	4	112	0.00	29.946 
22:55	22.7	22.7	22.7	90	20.2	1	3	112	0.00	29.946 
23:00	22.7	22.7	22.7	90	20.2	0	2	112	0.00	29.947 
23:05	22.7	22.7	22.7	90	20.2	0	2	225	0.00	29.947 
23:10	22.9	22.9	22.9	90	20.4	1	5	68	0.00	29.947 
23:15	22.9	22.9	22.9	90	20.4	1	5	248	0.00	29.954 
23:20	22.9	22.9	22.9	90	20.4	0	2	292	0.00	29.954 
23:25	22.9	22.9	22.9	90	20.4	1	3	292	0.00	29.954 
23:30	23.0	23.0	23.0	91	20.8	1	3	112	0.00	29.943 
23:35	23.2	23.2	23.2	90	20.7	0	1	112	0.00	29.943 
23:40	23.2	23.2	23.2	90	20.7	0	1	112	0.00	29.943 
23:45	23.2	23.2	23.2	90	20.7	0	0	---	0.00	29.943 
23:50	23.2	23.2	23.2	90	20.7	0	0	---	0.00	29.943 
23:55	23.2	23.2	23.2	90	20.7	0	1	112	0.00	29.943 

CoCoRaHS
IN-AL-39
A2 Web Hosting
Creative Commons License
GoDaddy
Look for:

loaded 2017-10-16 18:24:48 • last modified 2010-11-18 10:43:29
Privacy PolicyDisclaimer
• wx.awcolley.com is powered by PmWiki v.2002016 •
• all content (unless otherwise noted) © 2017 A W Colley